sensor_id;sensor_type;location;lat;lon;timestamp;P1;durP1;ratioP1;P2;durP2;ratioP2
793;SDS011;380;48.738;9.214;2023-05-07T00:00:17;2.35;;;1.50;;
793;SDS011;380;48.738;9.214;2023-05-07T00:02:44;2.72;;;1.40;;
793;SDS011;380;48.738;9.214;2023-05-07T00:05:10;2.08;;;1.40;;
793;SDS011;380;48.738;9.214;2023-05-07T00:07:36;3.45;;;1.92;;
793;SDS011;380;48.738;9.214;2023-05-07T00:10:03;2.97;;;1.75;;
793;SDS011;380;48.738;9.214;2023-05-07T00:12:29;4.50;;;1.40;;
793;SDS011;380;48.738;9.214;2023-05-07T00:14:58;3.17;;;1.83;;
793;SDS011;380;48.738;9.214;2023-05-07T00:17:24;2.38;;;1.23;;
793;SDS011;380;48.738;9.214;2023-05-07T00:19:50;2.47;;;1.65;;
793;SDS011;380;48.738;9.214;2023-05-07T00:22:16;2.10;;;1.50;;
793;SDS011;380;48.738;9.214;2023-05-07T00:24:42;2.42;;;1.48;;
793;SDS011;380;48.738;9.214;2023-05-07T00:27:08;2.00;;;1.25;;
793;SDS011;380;48.738;9.214;2023-05-07T00:29:34;2.47;;;1.38;;
793;SDS011;380;48.738;9.214;2023-05-07T00:32:01;3.25;;;1.63;;
793;SDS011;380;48.738;9.214;2023-05-07T00:34:27;2.08;;;1.58;;
793;SDS011;380;48.738;9.214;2023-05-07T00:36:53;3.08;;;1.13;;
793;SDS011;380;48.738;9.214;2023-05-07T00:39:19;1.75;;;1.17;;
793;SDS011;380;48.738;9.214;2023-05-07T00:41:45;6.32;;;1.35;;
793;SDS011;380;48.738;9.214;2023-05-07T00:44:12;2.15;;;1.30;;
793;SDS011;380;48.738;9.214;2023-05-07T00:46:38;2.20;;;1.40;;
793;SDS011;380;48.738;9.214;2023-05-07T00:49:04;2.33;;;1.63;;
793;SDS011;380;48.738;9.214;2023-05-07T00:51:31;2.05;;;1.17;;
793;SDS011;380;48.738;9.214;2023-05-07T00:53:56;2.78;;;1.52;;
793;SDS011;380;48.738;9.214;2023-05-07T00:56:22;2.03;;;1.52;;
793;SDS011;380;48.738;9.214;2023-05-07T00:58:49;2.35;;;1.30;;
793;SDS011;380;48.738;9.214;2023-05-07T01:01:15;3.05;;;1.33;;
793;SDS011;380;48.738;9.214;2023-05-07T01:03:41;2.65;;;1.65;;
793;SDS011;380;48.738;9.214;2023-05-07T01:06:07;3.53;;;1.70;;
793;SDS011;380;48.738;9.214;2023-05-07T01:08:34;3.55;;;1.58;;
793;SDS011;380;48.738;9.214;2023-05-07T01:11:00;2.05;;;1.27;;
793;SDS011;380;48.738;9.214;2023-05-07T01:13:26;2.05;;;1.20;;
793;SDS011;380;48.738;9.214;2023-05-07T01:15:53;3.95;;;1.30;;
793;SDS011;380;48.738;9.214;2023-05-07T01:18:19;1.92;;;1.20;;
793;SDS011;380;48.738;9.214;2023-05-07T01:20:45;2.08;;;1.10;;
793;SDS011;380;48.738;9.214;2023-05-07T01:23:11;2.03;;;1.35;;
793;SDS011;380;48.738;9.214;2023-05-07T01:25:37;2.67;;;1.40;;
793;SDS011;380;48.738;9.214;2023-05-07T01:28:03;2.28;;;1.40;;
793;SDS011;380;48.738;9.214;2023-05-07T01:30:30;2.50;;;1.13;;
793;SDS011;380;48.738;9.214;2023-05-07T01:32:58;3.03;;;1.50;;
793;SDS011;380;48.738;9.214;2023-05-07T01:35:30;2.72;;;1.52;;
793;SDS011;380;48.738;9.214;2023-05-07T01:37:58;1.90;;;1.10;;
793;SDS011;380;48.738;9.214;2023-05-07T01:40:24;1.77;;;1.05;;
793;SDS011;380;48.738;9.214;2023-05-07T01:42:50;1.98;;;1.27;;
793;SDS011;380;48.738;9.214;2023-05-07T01:45:16;1.95;;;1.30;;
793;SDS011;380;48.738;9.214;2023-05-07T01:47:42;1.30;;;0.80;;
793;SDS011;380;48.738;9.214;2023-05-07T01:50:08;1.90;;;1.23;;
793;SDS011;380;48.738;9.214;2023-05-07T01:52:35;1.73;;;1.20;;
793;SDS011;380;48.738;9.214;2023-05-07T01:55:01;2.65;;;1.25;;
793;SDS011;380;48.738;9.214;2023-05-07T01:57:27;2.65;;;1.33;;
793;SDS011;380;48.738;9.214;2023-05-07T01:59:53;2.13;;;1.33;;
793;SDS011;380;48.738;9.214;2023-05-07T02:02:18;2.45;;;1.45;;
793;SDS011;380;48.738;9.214;2023-05-07T02:04:44;2.45;;;1.20;;
793;SDS011;380;48.738;9.214;2023-05-07T02:07:10;2.10;;;1.15;;
793;SDS011;380;48.738;9.214;2023-05-07T02:09:36;2.17;;;1.33;;
793;SDS011;380;48.738;9.214;2023-05-07T02:12:02;2.72;;;1.50;;
793;SDS011;380;48.738;9.214;2023-05-07T02:14:28;2.15;;;1.40;;
793;SDS011;380;48.738;9.214;2023-05-07T02:16:55;3.10;;;1.30;;
793;SDS011;380;48.738;9.214;2023-05-07T02:19:20;2.40;;;1.35;;
793;SDS011;380;48.738;9.214;2023-05-07T02:21:47;2.20;;;1.10;;
793;SDS011;380;48.738;9.214;2023-05-07T02:24:13;2.17;;;1.17;;
793;SDS011;380;48.738;9.214;2023-05-07T02:26:42;4.03;;;1.25;;
793;SDS011;380;48.738;9.214;2023-05-07T02:29:08;2.40;;;1.27;;
793;SDS011;380;48.738;9.214;2023-05-07T02:31:34;2.70;;;1.50;;
793;SDS011;380;48.738;9.214;2023-05-07T02:34:00;2.15;;;1.30;;
793;SDS011;380;48.738;9.214;2023-05-07T02:36:26;1.95;;;1.17;;
793;SDS011;380;48.738;9.214;2023-05-07T02:38:52;2.58;;;1.38;;
793;SDS011;380;48.738;9.214;2023-05-07T02:41:18;3.13;;;1.92;;
793;SDS011;380;48.738;9.214;2023-05-07T02:43:45;2.58;;;1.65;;
793;SDS011;380;48.738;9.214;2023-05-07T02:46:11;3.08;;;1.40;;
793;SDS011;380;48.738;9.214;2023-05-07T02:48:37;2.10;;;1.25;;
793;SDS011;380;48.738;9.214;2023-05-07T02:51:03;2.40;;;1.40;;
793;SDS011;380;48.738;9.214;2023-05-07T02:53:30;2.40;;;1.27;;
793;SDS011;380;48.738;9.214;2023-05-07T02:55:57;2.05;;;1.10;;
793;SDS011;380;48.738;9.214;2023-05-07T02:58:23;4.00;;;1.30;;
793;SDS011;380;48.738;9.214;2023-05-07T03:00:49;2.90;;;1.40;;
793;SDS011;380;48.738;9.214;2023-05-07T03:03:15;1.83;;;0.93;;
793;SDS011;380;48.738;9.214;2023-05-07T03:05:41;2.22;;;1.20;;
793;SDS011;380;48.738;9.214;2023-05-07T03:08:07;1.80;;;1.13;;
793;SDS011;380;48.738;9.214;2023-05-07T03:10:33;2.25;;;1.48;;
793;SDS011;380;48.738;9.214;2023-05-07T03:13:00;2.45;;;1.70;;
793;SDS011;380;48.738;9.214;2023-05-07T03:15:26;3.22;;;1.75;;
793;SDS011;380;48.738;9.214;2023-05-07T03:17:52;2.72;;;1.70;;
793;SDS011;380;48.738;9.214;2023-05-07T03:20:18;3.72;;;1.35;;
793;SDS011;380;48.738;9.214;2023-05-07T03:22:44;2.70;;;1.83;;
793;SDS011;380;48.738;9.214;2023-05-07T03:25:10;2.25;;;1.50;;
793;SDS011;380;48.738;9.214;2023-05-07T03:27:36;2.45;;;1.85;;
793;SDS011;380;48.738;9.214;2023-05-07T03:30:03;2.42;;;1.50;;
793;SDS011;380;48.738;9.214;2023-05-07T03:32:29;3.22;;;1.88;;
793;SDS011;380;48.738;9.214;2023-05-07T03:34:55;2.17;;;1.23;;
793;SDS011;380;48.738;9.214;2023-05-07T03:37:21;2.15;;;1.55;;
793;SDS011;380;48.738;9.214;2023-05-07T03:39:47;4.82;;;2.05;;
793;SDS011;380;48.738;9.214;2023-05-07T03:42:13;2.63;;;1.42;;
793;SDS011;380;48.738;9.214;2023-05-07T03:44:39;2.20;;;1.50;;
793;SDS011;380;48.738;9.214;2023-05-07T03:47:05;6.10;;;1.48;;
793;SDS011;380;48.738;9.214;2023-05-07T03:49:31;2.85;;;1.83;;
793;SDS011;380;48.738;9.214;2023-05-07T03:51:57;2.78;;;1.40;;
793;SDS011;380;48.738;9.214;2023-05-07T03:54:23;2.72;;;1.83;;
793;SDS011;380;48.738;9.214;2023-05-07T03:56:49;2.85;;;1.65;;
793;SDS011;380;48.738;9.214;2023-05-07T03:59:15;1.98;;;1.35;;
793;SDS011;380;48.738;9.214;2023-05-07T04:01:41;2.80;;;1.40;;
793;SDS011;380;48.738;9.214;2023-05-07T04:04:07;3.20;;;2.08;;
793;SDS011;380;48.738;9.214;2023-05-07T04:06:33;2.20;;;1.38;;
793;SDS011;380;48.738;9.214;2023-05-07T04:08:59;2.40;;;1.45;;
793;SDS011;380;48.738;9.214;2023-05-07T04:11:25;2.35;;;1.52;;
793;SDS011;380;48.738;9.214;2023-05-07T04:13:51;2.95;;;1.77;;
793;SDS011;380;48.738;9.214;2023-05-07T04:16:17;2.47;;;1.77;;
793;SDS011;380;48.738;9.214;2023-05-07T04:18:43;2.90;;;1.85;;
793;SDS011;380;48.738;9.214;2023-05-07T04:21:16;2.70;;;1.55;;
793;SDS011;380;48.738;9.214;2023-05-07T04:23:42;2.53;;;1.67;;
793;SDS011;380;48.738;9.214;2023-05-07T04:26:08;1.98;;;1.33;;
793;SDS011;380;48.738;9.214;2023-05-07T04:28:34;2.13;;;1.40;;
793;SDS011;380;48.738;9.214;2023-05-07T04:31:00;2.35;;;1.40;;
793;SDS011;380;48.738;9.214;2023-05-07T04:33:26;2.80;;;2.00;;
793;SDS011;380;48.738;9.214;2023-05-07T04:35:52;2.63;;;1.88;;
793;SDS011;380;48.738;9.214;2023-05-07T04:38:18;2.10;;;1.38;;
793;SDS011;380;48.738;9.214;2023-05-07T04:40:44;2.65;;;1.67;;
793;SDS011;380;48.738;9.214;2023-05-07T04:43:11;2.53;;;1.90;;
793;SDS011;380;48.738;9.214;2023-05-07T04:45:38;2.30;;;1.58;;
793;SDS011;380;48.738;9.214;2023-05-07T04:48:06;3.47;;;2.17;;
793;SDS011;380;48.738;9.214;2023-05-07T04:50:32;2.70;;;1.67;;
793;SDS011;380;48.738;9.214;2023-05-07T04:52:58;2.42;;;1.67;;
793;SDS011;380;48.738;9.214;2023-05-07T04:55:24;4.15;;;2.10;;
793;SDS011;380;48.738;9.214;2023-05-07T04:57:50;2.72;;;2.05;;
793;SDS011;380;48.738;9.214;2023-05-07T05:00:16;2.58;;;1.80;;
793;SDS011;380;48.738;9.214;2023-05-07T05:02:44;2.88;;;2.00;;
793;SDS011;380;48.738;9.214;2023-05-07T05:05:10;3.53;;;2.28;;
793;SDS011;380;48.738;9.214;2023-05-07T05:07:36;3.45;;;2.88;;
793;SDS011;380;48.738;9.214;2023-05-07T05:10:03;4.82;;;3.00;;
793;SDS011;380;48.738;9.214;2023-05-07T05:12:29;3.03;;;2.33;;
793;SDS011;380;48.738;9.214;2023-05-07T05:14:55;3.10;;;2.03;;
793;SDS011;380;48.738;9.214;2023-05-07T05:17:22;6.68;;;2.60;;
793;SDS011;380;48.738;9.214;2023-05-07T05:19:48;4.22;;;2.50;;
793;SDS011;380;48.738;9.214;2023-05-07T05:22:14;2.00;;;1.48;;
793;SDS011;380;48.738;9.214;2023-05-07T05:24:40;2.75;;;2.13;;
793;SDS011;380;48.738;9.214;2023-05-07T05:27:06;3.08;;;2.10;;
793;SDS011;380;48.738;9.214;2023-05-07T05:29:32;2.50;;;1.80;;
793;SDS011;380;48.738;9.214;2023-05-07T05:31:58;3.20;;;2.22;;
793;SDS011;380;48.738;9.214;2023-05-07T05:34:24;3.60;;;2.45;;
793;SDS011;380;48.738;9.214;2023-05-07T05:36:50;2.80;;;1.90;;
793;SDS011;380;48.738;9.214;2023-05-07T05:39:16;2.75;;;2.13;;
793;SDS011;380;48.738;9.214;2023-05-07T05:41:42;2.10;;;1.52;;
793;SDS011;380;48.738;9.214;2023-05-07T05:44:08;2.70;;;1.83;;
793;SDS011;380;48.738;9.214;2023-05-07T05:46:34;3.45;;;2.08;;
793;SDS011;380;48.738;9.214;2023-05-07T05:49:00;2.83;;;1.80;;
793;SDS011;380;48.738;9.214;2023-05-07T05:51:26;2.35;;;1.90;;
793;SDS011;380;48.738;9.214;2023-05-07T05:53:52;3.00;;;2.13;;
793;SDS011;380;48.738;9.214;2023-05-07T05:56:18;2.75;;;1.85;;
793;SDS011;380;48.738;9.214;2023-05-07T05:58:44;3.33;;;2.50;;
793;SDS011;380;48.738;9.214;2023-05-07T06:01:10;2.58;;;1.85;;
793;SDS011;380;48.738;9.214;2023-05-07T06:03:36;3.63;;;2.30;;
793;SDS011;380;48.738;9.214;2023-05-07T06:06:02;2.60;;;1.90;;
793;SDS011;380;48.738;9.214;2023-05-07T06:08:29;2.53;;;1.98;;
793;SDS011;380;48.738;9.214;2023-05-07T06:10:55;3.95;;;2.58;;
793;SDS011;380;48.738;9.214;2023-05-07T06:13:21;2.85;;;1.65;;
793;SDS011;380;48.738;9.214;2023-05-07T06:15:48;3.85;;;2.70;;
793;SDS011;380;48.738;9.214;2023-05-07T06:18:14;3.03;;;2.20;;
793;SDS011;380;48.738;9.214;2023-05-07T06:20:40;2.70;;;2.15;;
793;SDS011;380;48.738;9.214;2023-05-07T06:23:06;3.38;;;2.22;;
793;SDS011;380;48.738;9.214;2023-05-07T06:25:32;3.67;;;2.00;;
793;SDS011;380;48.738;9.214;2023-05-07T06:27:58;3.63;;;2.13;;
793;SDS011;380;48.738;9.214;2023-05-07T06:30:24;3.15;;;2.13;;
793;SDS011;380;48.738;9.214;2023-05-07T06:32:51;3.30;;;2.17;;
793;SDS011;380;48.738;9.214;2023-05-07T06:35:17;2.63;;;2.03;;
793;SDS011;380;48.738;9.214;2023-05-07T06:37:44;4.15;;;2.97;;
793;SDS011;380;48.738;9.214;2023-05-07T06:40:10;3.58;;;2.55;;
793;SDS011;380;48.738;9.214;2023-05-07T06:42:36;2.88;;;2.00;;
793;SDS011;380;48.738;9.214;2023-05-07T06:45:02;3.15;;;2.17;;
793;SDS011;380;48.738;9.214;2023-05-07T06:47:28;2.88;;;2.35;;
793;SDS011;380;48.738;9.214;2023-05-07T06:49:54;3.03;;;2.40;;
793;SDS011;380;48.738;9.214;2023-05-07T06:52:20;3.30;;;2.45;;
793;SDS011;380;48.738;9.214;2023-05-07T06:54:46;3.22;;;2.47;;
793;SDS011;380;48.738;9.214;2023-05-07T06:57:12;3.65;;;2.92;;
793;SDS011;380;48.738;9.214;2023-05-07T06:59:38;3.83;;;2.35;;
793;SDS011;380;48.738;9.214;2023-05-07T07:02:04;2.83;;;2.30;;
793;SDS011;380;48.738;9.214;2023-05-07T07:04:30;5.25;;;3.40;;
793;SDS011;380;48.738;9.214;2023-05-07T07:06:56;2.92;;;2.63;;
793;SDS011;380;48.738;9.214;2023-05-07T07:09:22;4.03;;;2.63;;
793;SDS011;380;48.738;9.214;2023-05-07T07:11:48;4.57;;;2.63;;
793;SDS011;380;48.738;9.214;2023-05-07T07:14:14;3.42;;;2.78;;
793;SDS011;380;48.738;9.214;2023-05-07T07:16:40;3.88;;;2.92;;
793;SDS011;380;48.738;9.214;2023-05-07T07:19:06;3.65;;;2.30;;
793;SDS011;380;48.738;9.214;2023-05-07T07:21:32;4.25;;;2.72;;
793;SDS011;380;48.738;9.214;2023-05-07T07:23:58;6.00;;;3.25;;
793;SDS011;380;48.738;9.214;2023-05-07T07:26:24;3.72;;;2.70;;
793;SDS011;380;48.738;9.214;2023-05-07T07:28:50;3.00;;;2.38;;
793;SDS011;380;48.738;9.214;2023-05-07T07:31:16;3.42;;;2.42;;
793;SDS011;380;48.738;9.214;2023-05-07T07:33:42;3.78;;;2.58;;
793;SDS011;380;48.738;9.214;2023-05-07T07:36:08;4.13;;;3.08;;
793;SDS011;380;48.738;9.214;2023-05-07T07:38:34;3.47;;;2.83;;
793;SDS011;380;48.738;9.214;2023-05-07T07:41:00;3.75;;;2.53;;
793;SDS011;380;48.738;9.214;2023-05-07T07:43:26;2.97;;;2.42;;
793;SDS011;380;48.738;9.214;2023-05-07T07:45:52;3.42;;;2.55;;
793;SDS011;380;48.738;9.214;2023-05-07T07:48:18;4.18;;;2.47;;
793;SDS011;380;48.738;9.214;2023-05-07T07:50:44;4.63;;;2.75;;
793;SDS011;380;48.738;9.214;2023-05-07T07:53:10;3.75;;;2.83;;
793;SDS011;380;48.738;9.214;2023-05-07T07:55:39;3.85;;;2.45;;
793;SDS011;380;48.738;9.214;2023-05-07T07:58:05;4.32;;;2.05;;
793;SDS011;380;48.738;9.214;2023-05-07T08:00:31;3.38;;;2.67;;
793;SDS011;380;48.738;9.214;2023-05-07T08:02:57;2.47;;;2.22;;
793;SDS011;380;48.738;9.214;2023-05-07T08:05:24;3.35;;;2.30;;
793;SDS011;380;48.738;9.214;2023-05-07T08:07:50;3.38;;;2.70;;
793;SDS011;380;48.738;9.214;2023-05-07T08:10:17;3.42;;;2.67;;
793;SDS011;380;48.738;9.214;2023-05-07T08:12:47;4.03;;;3.00;;
793;SDS011;380;48.738;9.214;2023-05-07T08:15:13;3.08;;;2.50;;
793;SDS011;380;48.738;9.214;2023-05-07T08:17:39;2.88;;;2.20;;
793;SDS011;380;48.738;9.214;2023-05-07T08:20:06;3.58;;;3.10;;
793;SDS011;380;48.738;9.214;2023-05-07T08:22:33;4.20;;;2.90;;
793;SDS011;380;48.738;9.214;2023-05-07T08:24:59;3.60;;;2.70;;
793;SDS011;380;48.738;9.214;2023-05-07T08:27:26;5.60;;;3.33;;
793;SDS011;380;48.738;9.214;2023-05-07T08:29:52;2.65;;;2.13;;
793;SDS011;380;48.738;9.214;2023-05-07T08:32:18;3.22;;;2.53;;
793;SDS011;380;48.738;9.214;2023-05-07T08:34:44;3.47;;;2.33;;
793;SDS011;380;48.738;9.214;2023-05-07T08:37:10;5.38;;;2.33;;
793;SDS011;380;48.738;9.214;2023-05-07T08:39:36;3.80;;;2.72;;
793;SDS011;380;48.738;9.214;2023-05-07T08:42:03;2.78;;;2.10;;
793;SDS011;380;48.738;9.214;2023-05-07T08:44:33;3.05;;;2.25;;
793;SDS011;380;48.738;9.214;2023-05-07T08:47:00;3.20;;;2.60;;
793;SDS011;380;48.738;9.214;2023-05-07T08:49:27;3.50;;;2.67;;
793;SDS011;380;48.738;9.214;2023-05-07T08:51:53;3.60;;;2.38;;
793;SDS011;380;48.738;9.214;2023-05-07T08:54:20;2.72;;;2.03;;
793;SDS011;380;48.738;9.214;2023-05-07T08:56:46;3.15;;;2.30;;
793;SDS011;380;48.738;9.214;2023-05-07T08:59:13;4.78;;;2.90;;
793;SDS011;380;48.738;9.214;2023-05-07T09:01:39;2.90;;;2.20;;
793;SDS011;380;48.738;9.214;2023-05-07T09:04:05;3.58;;;2.08;;
793;SDS011;380;48.738;9.214;2023-05-07T09:06:32;2.58;;;1.85;;
793;SDS011;380;48.738;9.214;2023-05-07T09:08:58;3.63;;;2.47;;
793;SDS011;380;48.738;9.214;2023-05-07T09:11:26;3.25;;;2.33;;
793;SDS011;380;48.738;9.214;2023-05-07T09:13:55;2.75;;;2.10;;
793;SDS011;380;48.738;9.214;2023-05-07T09:16:23;2.55;;;1.95;;
793;SDS011;380;48.738;9.214;2023-05-07T09:18:52;2.30;;;1.45;;
793;SDS011;380;48.738;9.214;2023-05-07T09:21:18;2.83;;;1.65;;
793;SDS011;380;48.738;9.214;2023-05-07T09:23:44;3.15;;;2.17;;
793;SDS011;380;48.738;9.214;2023-05-07T09:26:10;3.45;;;2.20;;
793;SDS011;380;48.738;9.214;2023-05-07T09:28:44;4.68;;;2.13;;
793;SDS011;380;48.738;9.214;2023-05-07T09:31:11;2.60;;;1.73;;
793;SDS011;380;48.738;9.214;2023-05-07T09:33:38;2.67;;;1.85;;
793;SDS011;380;48.738;9.214;2023-05-07T09:36:04;2.92;;;1.83;;
793;SDS011;380;48.738;9.214;2023-05-07T09:38:31;5.80;;;1.88;;
793;SDS011;380;48.738;9.214;2023-05-07T09:41:16;2.97;;;2.30;;
793;SDS011;380;48.738;9.214;2023-05-07T09:43:42;3.05;;;1.88;;
793;SDS011;380;48.738;9.214;2023-05-07T09:46:14;2.75;;;2.22;;
793;SDS011;380;48.738;9.214;2023-05-07T09:48:42;3.00;;;2.00;;
793;SDS011;380;48.738;9.214;2023-05-07T09:53:37;3.00;;;1.65;;
793;SDS011;380;48.738;9.214;2023-05-07T09:56:03;3.35;;;2.15;;
793;SDS011;380;48.738;9.214;2023-05-07T09:58:30;2.30;;;1.60;;
793;SDS011;380;48.738;9.214;2023-05-07T10:00:57;2.33;;;1.88;;
793;SDS011;380;48.738;9.214;2023-05-07T10:03:24;2.88;;;2.08;;
793;SDS011;380;48.738;9.214;2023-05-07T10:05:51;3.53;;;1.95;;
793;SDS011;380;48.738;9.214;2023-05-07T10:08:17;2.53;;;1.65;;
793;SDS011;380;48.738;9.214;2023-05-07T10:10:44;2.85;;;1.65;;
793;SDS011;380;48.738;9.214;2023-05-07T10:13:10;2.85;;;1.90;;
793;SDS011;380;48.738;9.214;2023-05-07T10:15:37;3.00;;;2.10;;
793;SDS011;380;48.738;9.214;2023-05-07T10:18:03;3.25;;;1.80;;
793;SDS011;380;48.738;9.214;2023-05-07T10:20:30;3.65;;;2.05;;
793;SDS011;380;48.738;9.214;2023-05-07T10:22:57;4.35;;;1.90;;
793;SDS011;380;48.738;9.214;2023-05-07T10:25:28;2.95;;;2.05;;
793;SDS011;380;48.738;9.214;2023-05-07T10:27:55;3.78;;;2.13;;
793;SDS011;380;48.738;9.214;2023-05-07T10:32:53;3.15;;;1.52;;
793;SDS011;380;48.738;9.214;2023-05-07T10:35:21;2.30;;;1.67;;
793;SDS011;380;48.738;9.214;2023-05-07T10:37:48;3.40;;;1.88;;
793;SDS011;380;48.738;9.214;2023-05-07T10:40:15;3.25;;;2.20;;
793;SDS011;380;48.738;9.214;2023-05-07T10:43:01;2.45;;;1.60;;
793;SDS011;380;48.738;9.214;2023-05-07T10:45:29;3.15;;;2.20;;
793;SDS011;380;48.738;9.214;2023-05-07T10:48:14;3.58;;;1.92;;
793;SDS011;380;48.738;9.214;2023-05-07T10:50:40;2.80;;;1.80;;
793;SDS011;380;48.738;9.214;2023-05-07T10:55:46;2.78;;;1.58;;
793;SDS011;380;48.738;9.214;2023-05-07T11:00:49;2.60;;;1.83;;
793;SDS011;380;48.738;9.214;2023-05-07T11:03:16;5.50;;;2.38;;
793;SDS011;380;48.738;9.214;2023-05-07T11:05:42;2.78;;;1.75;;
793;SDS011;380;48.738;9.214;2023-05-07T11:08:08;2.30;;;1.52;;
793;SDS011;380;48.738;9.214;2023-05-07T11:10:53;3.35;;;1.60;;
793;SDS011;380;48.738;9.214;2023-05-07T11:16:05;2.00;;;1.30;;
793;SDS011;380;48.738;9.214;2023-05-07T11:18:56;2.63;;;1.50;;
793;SDS011;380;48.738;9.214;2023-05-07T11:21:35;2.58;;;1.88;;
793;SDS011;380;48.738;9.214;2023-05-07T11:24:02;1.95;;;1.30;;
793;SDS011;380;48.738;9.214;2023-05-07T11:26:29;3.38;;;1.20;;
793;SDS011;380;48.738;9.214;2023-05-07T11:28:56;4.00;;;1.42;;
793;SDS011;380;48.738;9.214;2023-05-07T11:31:26;4.20;;;1.52;;
793;SDS011;380;48.738;9.214;2023-05-07T11:33:53;3.47;;;1.30;;
793;SDS011;380;48.738;9.214;2023-05-07T11:36:21;2.58;;;1.17;;
793;SDS011;380;48.738;9.214;2023-05-07T11:38:47;3.22;;;1.30;;
793;SDS011;380;48.738;9.214;2023-05-07T11:41:13;2.53;;;1.65;;
793;SDS011;380;48.738;9.214;2023-05-07T11:43:53;2.60;;;1.88;;
793;SDS011;380;48.738;9.214;2023-05-07T11:46:20;3.17;;;1.67;;
793;SDS011;380;48.738;9.214;2023-05-07T11:48:46;2.45;;;1.55;;
793;SDS011;380;48.738;9.214;2023-05-07T11:51:12;2.97;;;1.60;;
793;SDS011;380;48.738;9.214;2023-05-07T11:53:41;2.88;;;2.20;;
793;SDS011;380;48.738;9.214;2023-05-07T11:56:14;2.33;;;1.50;;
793;SDS011;380;48.738;9.214;2023-05-07T11:58:40;2.10;;;1.27;;
793;SDS011;380;48.738;9.214;2023-05-07T12:01:07;4.13;;;1.83;;
793;SDS011;380;48.738;9.214;2023-05-07T12:03:34;2.50;;;1.85;;
793;SDS011;380;48.738;9.214;2023-05-07T12:06:00;5.38;;;1.85;;
793;SDS011;380;48.738;9.214;2023-05-07T12:08:26;5.20;;;2.35;;
793;SDS011;380;48.738;9.214;2023-05-07T12:10:52;3.08;;;2.15;;
793;SDS011;380;48.738;9.214;2023-05-07T12:13:18;3.17;;;2.15;;
793;SDS011;380;48.738;9.214;2023-05-07T12:15:45;4.03;;;1.73;;
793;SDS011;380;48.738;9.214;2023-05-07T12:18:11;1.98;;;1.20;;
793;SDS011;380;48.738;9.214;2023-05-07T12:20:38;7.07;;;1.80;;
793;SDS011;380;48.738;9.214;2023-05-07T12:23:04;3.40;;;2.42;;
793;SDS011;380;48.738;9.214;2023-05-07T12:25:31;3.97;;;1.50;;
793;SDS011;380;48.738;9.214;2023-05-07T12:27:57;4.55;;;2.13;;
793;SDS011;380;48.738;9.214;2023-05-07T12:30:25;4.72;;;1.38;;
793;SDS011;380;48.738;9.214;2023-05-07T12:32:54;5.50;;;1.17;;
793;SDS011;380;48.738;9.214;2023-05-07T12:35:26;1.75;;;1.13;;
793;SDS011;380;48.738;9.214;2023-05-07T12:37:55;2.38;;;1.35;;
793;SDS011;380;48.738;9.214;2023-05-07T12:40:21;6.05;;;1.70;;
793;SDS011;380;48.738;9.214;2023-05-07T12:42:47;2.28;;;1.25;;
793;SDS011;380;48.738;9.214;2023-05-07T12:45:19;3.17;;;2.00;;
793;SDS011;380;48.738;9.214;2023-05-07T12:47:45;2.47;;;1.40;;
793;SDS011;380;48.738;9.214;2023-05-07T12:50:12;2.03;;;1.13;;
793;SDS011;380;48.738;9.214;2023-05-07T12:52:39;4.68;;;1.00;;
793;SDS011;380;48.738;9.214;2023-05-07T12:55:05;1.30;;;0.63;;
793;SDS011;380;48.738;9.214;2023-05-07T12:57:37;2.17;;;0.52;;
793;SDS011;380;48.738;9.214;2023-05-07T13:00:03;1.33;;;0.82;;
793;SDS011;380;48.738;9.214;2023-05-07T13:02:33;3.38;;;0.82;;
793;SDS011;380;48.738;9.214;2023-05-07T13:04:59;2.50;;;0.73;;
793;SDS011;380;48.738;9.214;2023-05-07T13:07:25;4.03;;;1.40;;
793;SDS011;380;48.738;9.214;2023-05-07T13:09:51;4.72;;;1.05;;
793;SDS011;380;48.738;9.214;2023-05-07T13:12:17;1.95;;;0.77;;
793;SDS011;380;48.738;9.214;2023-05-07T13:14:43;2.55;;;1.13;;
793;SDS011;380;48.738;9.214;2023-05-07T13:17:09;1.77;;;0.98;;
793;SDS011;380;48.738;9.214;2023-05-07T13:19:35;2.13;;;1.05;;
793;SDS011;380;48.738;9.214;2023-05-07T13:22:02;1.60;;;1.00;;
793;SDS011;380;48.738;9.214;2023-05-07T13:24:28;8.43;;;1.48;;
793;SDS011;380;48.738;9.214;2023-05-07T13:26:54;1.60;;;0.88;;
793;SDS011;380;48.738;9.214;2023-05-07T13:29:20;2.75;;;1.63;;
793;SDS011;380;48.738;9.214;2023-05-07T13:31:53;2.28;;;1.02;;
793;SDS011;380;48.738;9.214;2023-05-07T13:34:19;3.88;;;2.03;;
793;SDS011;380;48.738;9.214;2023-05-07T13:36:45;1.25;;;0.70;;
793;SDS011;380;48.738;9.214;2023-05-07T13:39:11;1.25;;;0.70;;
793;SDS011;380;48.738;9.214;2023-05-07T13:41:37;1.55;;;0.70;;
793;SDS011;380;48.738;9.214;2023-05-07T13:44:03;1.42;;;1.02;;
793;SDS011;380;48.738;9.214;2023-05-07T13:46:29;1.05;;;0.63;;
793;SDS011;380;48.738;9.214;2023-05-07T13:48:55;1.23;;;0.57;;
793;SDS011;380;48.738;9.214;2023-05-07T13:51:21;1.38;;;0.80;;
793;SDS011;380;48.738;9.214;2023-05-07T13:53:47;2.40;;;0.60;;
793;SDS011;380;48.738;9.214;2023-05-07T13:56:13;0.90;;;0.40;;
793;SDS011;380;48.738;9.214;2023-05-07T13:58:40;0.98;;;0.57;;
793;SDS011;380;48.738;9.214;2023-05-07T14:01:06;3.53;;;1.10;;
793;SDS011;380;48.738;9.214;2023-05-07T14:03:32;2.38;;;1.25;;
793;SDS011;380;48.738;9.214;2023-05-07T14:05:59;2.40;;;1.33;;
793;SDS011;380;48.738;9.214;2023-05-07T14:08:26;2.88;;;1.77;;
793;SDS011;380;48.738;9.214;2023-05-07T14:10:52;2.90;;;2.08;;
793;SDS011;380;48.738;9.214;2023-05-07T14:13:18;2.00;;;1.42;;
793;SDS011;380;48.738;9.214;2023-05-07T14:15:44;2.55;;;1.42;;
793;SDS011;380;48.738;9.214;2023-05-07T14:18:12;2.15;;;1.33;;
793;SDS011;380;48.738;9.214;2023-05-07T14:20:38;2.75;;;1.48;;
793;SDS011;380;48.738;9.214;2023-05-07T14:23:04;3.13;;;1.85;;
793;SDS011;380;48.738;9.214;2023-05-07T14:25:30;2.80;;;1.90;;
793;SDS011;380;48.738;9.214;2023-05-07T14:27:56;4.60;;;2.03;;
793;SDS011;380;48.738;9.214;2023-05-07T14:30:22;5.90;;;2.03;;
793;SDS011;380;48.738;9.214;2023-05-07T14:32:49;3.25;;;2.10;;
793;SDS011;380;48.738;9.214;2023-05-07T14:35:15;4.28;;;2.40;;
793;SDS011;380;48.738;9.214;2023-05-07T14:37:42;3.17;;;2.28;;
793;SDS011;380;48.738;9.214;2023-05-07T14:40:08;4.40;;;2.28;;
793;SDS011;380;48.738;9.214;2023-05-07T14:42:34;3.03;;;1.65;;
793;SDS011;380;48.738;9.214;2023-05-07T14:45:00;2.40;;;1.58;;
793;SDS011;380;48.738;9.214;2023-05-07T14:47:26;2.58;;;1.70;;
793;SDS011;380;48.738;9.214;2023-05-07T14:49:52;3.20;;;1.95;;
793;SDS011;380;48.738;9.214;2023-05-07T14:52:18;3.30;;;2.10;;
793;SDS011;380;48.738;9.214;2023-05-07T14:54:44;3.63;;;2.13;;
793;SDS011;380;48.738;9.214;2023-05-07T14:57:10;2.58;;;1.90;;
793;SDS011;380;48.738;9.214;2023-05-07T14:59:38;2.65;;;1.80;;
793;SDS011;380;48.738;9.214;2023-05-07T15:02:05;3.67;;;1.67;;
793;SDS011;380;48.738;9.214;2023-05-07T15:04:32;2.58;;;1.65;;
793;SDS011;380;48.738;9.214;2023-05-07T15:06:58;3.85;;;2.05;;
793;SDS011;380;48.738;9.214;2023-05-07T15:09:25;2.83;;;1.80;;
793;SDS011;380;48.738;9.214;2023-05-07T15:11:51;4.95;;;1.70;;
793;SDS011;380;48.738;9.214;2023-05-07T15:14:17;2.60;;;1.33;;
793;SDS011;380;48.738;9.214;2023-05-07T15:16:43;2.42;;;1.63;;
793;SDS011;380;48.738;9.214;2023-05-07T15:19:09;2.95;;;1.35;;
793;SDS011;380;48.738;9.214;2023-05-07T15:21:35;5.25;;;1.55;;
793;SDS011;380;48.738;9.214;2023-05-07T15:24:02;2.28;;;1.50;;
793;SDS011;380;48.738;9.214;2023-05-07T15:26:28;2.60;;;1.30;;
793;SDS011;380;48.738;9.214;2023-05-07T15:28:54;3.17;;;1.20;;
793;SDS011;380;48.738;9.214;2023-05-07T15:31:22;2.58;;;1.67;;
793;SDS011;380;48.738;9.214;2023-05-07T15:33:48;7.10;;;1.92;;
793;SDS011;380;48.738;9.214;2023-05-07T15:36:16;1.95;;;1.30;;
793;SDS011;380;48.738;9.214;2023-05-07T15:38:42;1.52;;;1.05;;
793;SDS011;380;48.738;9.214;2023-05-07T15:41:08;2.85;;;1.30;;
793;SDS011;380;48.738;9.214;2023-05-07T15:43:48;2.25;;;1.27;;
793;SDS011;380;48.738;9.214;2023-05-07T15:46:22;1.25;;;0.82;;
793;SDS011;380;48.738;9.214;2023-05-07T15:48:49;2.20;;;1.30;;
793;SDS011;380;48.738;9.214;2023-05-07T15:51:15;2.42;;;1.50;;
793;SDS011;380;48.738;9.214;2023-05-07T15:53:42;2.13;;;1.42;;